Alum Bank, Pennsylvania
Current Conditions -  °F | °C
As of 10:54 PM on Tuesday 21 Oct 2014 (Local Time) from KJST Reporting Station
Light Rain Light Rain  
Wind Chill: 39°   Ceiling: 300
Heat Index: 45°   Visibility: 5mi
Dew Point: 43°   Wind: 12mph
Humidity: 93%   Direction: 320°NW
Pressure: 29.97"   Gusts: NA
Location:  40.18°N, 78.61°W
Report Text: KJST 220254Z AUTO 32010KT 5SM -RA BR OVC003 07/06 A2997 RMK AO2 RAB03E17B51 SLP157 P0000 60000 T00720061 53012
Loading
Personal Weather Stations






























Interactive Weather Map New forecast layout! Learn more

10-Day Weather Forecast

Advertisements
Track Severe Weather on mobile